Time;durP1;ratioP1;P1;durP2;ratioP2;P2;SDS_P1;SDS_P2;PMS_P1;PMS_P2;Temp;Humidity;BMP_temperature;BMP_pressure;BME280_temperature;BME280_humidity;BME280_pressure;Samples;Min_cycle;Max_cycle;Signal;HPM_P1;HPM_P2
2022/09/10 00:00:36;;;;;;;0.00;0.00;;;15.90;99.90;;;;;;5049181;28;20072;-81
2022/09/10 00:03:03;;;;;;;0.00;0.00;;;15.90;99.90;;;;;;5048212;28;20044;-83
2022/09/10 00:05:36;;;;;;;0.00;0.00;;;15.90;99.90;;;;;;5050087;28;20030;-83
2022/09/10 00:08:05;;;;;;;0.00;0.00;;;15.80;99.90;;;;;;5047169;28;20045;-83
2022/09/10 00:10:37;;;;;;;0.00;0.00;;;15.70;99.90;;;;;;5047690;28;20069;-82
2022/09/10 00:13:05;;;;;;;0.00;0.00;;;15.70;99.90;;;;;;5049486;28;20040;-81
2022/09/10 00:15:36;;;;;;;0.00;0.00;;;15.70;99.90;;;;;;5048983;28;20044;-81
2022/09/10 00:18:03;;;;;;;0.00;0.00;;;15.70;99.90;;;;;;5039974;28;20044;-79
2022/09/10 00:20:30;;;;;;;0.00;0.00;;;15.70;99.90;;;;;;5046722;28;20045;-83
2022/09/10 00:22:56;;;;;;;0.00;0.00;;;15.60;99.90;;;;;;5054578;28;20033;-84
2022/09/10 00:25:28;;;;;;;0.00;0.00;;;15.50;99.90;;;;;;5047652;28;20053;-82
2022/09/10 00:27:55;;;;;;;0.00;0.00;;;15.60;99.90;;;;;;5050367;28;20471;-81
2022/09/10 00:30:22;;;;;;;0.00;0.00;;;15.50;99.90;;;;;;5042661;28;20053;-84
2022/09/10 00:32:51;;;;;;;0.00;0.00;;;15.60;99.90;;;;;;5055250;28;20057;-79
2022/09/10 00:35:21;;;;;;;0.00;0.00;;;15.60;99.90;;;;;;5049728;28;20103;-82
2022/09/10 00:37:48;;;;;;;0.00;0.00;;;15.60;99.90;;;;;;5051534;28;20049;-81
2022/09/10 00:40:15;;;;;;;0.00;0.00;;;15.70;99.90;;;;;;5048609;28;20128;-81
2022/09/10 00:42:43;;;;;;;0.00;0.00;;;15.80;99.90;;;;;;5049168;28;20505;-81
2022/09/10 00:45:18;;;;;;;0.00;0.00;;;15.80;99.90;;;;;;5045350;28;20049;-80
2022/09/10 00:47:47;;;;;;;0.00;0.00;;;15.80;99.90;;;;;;5047081;28;20048;-84
2022/09/10 00:50:19;;;;;;;0.00;0.00;;;15.80;99.90;;;;;;5049704;28;20039;-82
2022/09/10 00:52:47;;;;;;;0.00;0.00;;;15.90;99.90;;;;;;5050207;28;20075;-84
2022/09/10 00:55:15;;;;;;;0.00;0.00;;;15.80;99.90;;;;;;5049404;28;20082;-82
2022/09/10 00:57:46;;;;;;;0.00;0.00;;;15.70;99.90;;;;;;5047997;28;20266;-80
2022/09/10 01:00:13;;;;;;;0.00;0.00;;;15.70;99.90;;;;;;5045805;28;20037;-82
2022/09/10 01:02:41;;;;;;;0.00;0.00;;;15.70;99.90;;;;;;5053016;28;20065;-83
2022/09/10 01:05:09;;;;;;;0.00;0.00;;;15.70;99.90;;;;;;5053606;28;20041;-81
2022/09/10 01:07:37;;;;;;;0.00;0.00;;;15.60;99.90;;;;;;5054047;28;20155;-84
2022/09/10 01:10:08;;;;;;;0.00;0.00;;;15.70;99.90;;;;;;5053531;28;20123;-84
2022/09/10 01:12:55;;;;;;;0.00;0.00;;;15.70;99.90;;;;;;5051219;28;20036;-84
2022/09/10 01:15:30;;;;;;;0.00;0.00;;;15.80;99.90;;;;;;5051225;28;20124;-81
2022/09/10 01:18:09;;;;;;;0.00;0.00;;;15.80;99.90;;;;;;5059517;28;20549;-80
2022/09/10 01:20:57;;;;;;;0.00;0.00;;;15.70;99.90;;;;;;5048515;28;20033;-81
2022/09/10 01:24:06;;;;;;;0.00;0.00;;;15.70;99.90;;;;;;5047845;28;20044;-80
2022/09/10 01:27:01;;;;;;;0.00;0.00;;;15.80;99.90;;;;;;5039243;28;20057;-79
2022/09/10 01:29:35;;;;;;;0.00;0.00;;;15.80;99.90;;;;;;5046461;28;20049;-81
2022/09/10 01:32:08;;;;;;;0.00;0.00;;;15.80;99.90;;;;;;5046192;28;20140;-81
2022/09/10 01:34:41;;;;;;;0.00;0.00;;;15.80;99.90;;;;;;5054712;28;20071;-80
2022/09/10 01:37:14;;;;;;;0.00;0.00;;;15.90;99.90;;;;;;5046121;28;20059;-79
2022/09/10 01:39:42;;;;;;;0.00;0.00;;;15.90;99.90;;;;;;5049582;28;20346;-82
2022/09/10 01:42:09;;;;;;;0.00;0.00;;;15.80;99.90;;;;;;5043629;28;20049;-80
2022/09/10 01:44:46;;;;;;;0.00;0.00;;;15.80;99.90;;;;;;5050215;28;20407;-80
2022/09/10 01:47:21;;;;;;;0.00;0.00;;;15.80;99.90;;;;;;5049863;28;20049;-82
2022/09/10 01:50:08;;;;;;;0.00;0.00;;;15.80;99.90;;;;;;5045263;28;20047;-81
2022/09/10 01:52:44;;;;;;;0.00;0.00;;;15.80;99.90;;;;;;5052476;28;20136;-82
2022/09/10 01:55:24;;;;;;;0.00;0.00;;;15.90;99.90;;;;;;5050140;28;20037;-82
2022/09/10 01:57:57;;;;;;;0.00;0.00;;;15.90;99.90;;;;;;5045125;28;20041;-81
2022/09/10 02:00:26;;;;;;;0.00;0.00;;;15.80;99.90;;;;;;5049897;28;20059;-81
2022/09/10 02:02:59;;;;;;;0.00;0.00;;;15.80;99.90;;;;;;5050978;28;20083;-80
2022/09/10 02:05:29;;;;;;;0.10;0.10;;;15.70;99.90;;;;;;5044588;28;20044;-80
2022/09/10 02:08:00;;;;;;;0.00;0.00;;;15.90;99.90;;;;;;5053668;28;20032;-83
2022/09/10 02:10:27;;;;;;;0.00;0.00;;;15.90;99.90;;;;;;5056568;28;20122;-82
2022/09/10 02:12:54;;;;;;;0.00;0.00;;;15.90;99.90;;;;;;5051290;28;20748;-82
2022/09/10 02:15:27;;;;;;;0.00;0.00;;;16.00;99.90;;;;;;5047782;28;20063;-79
2022/09/10 02:17:54;;;;;;;0.00;0.00;;;16.00;99.90;;;;;;5050261;28;20543;-80
2022/09/10 02:20:22;;;;;;;0.00;0.00;;;16.10;99.90;;;;;;5053472;28;20417;-80
2022/09/10 02:22:54;;;;;;;0.00;0.00;;;16.10;99.90;;;;;;5052462;28;20161;-81
2022/09/10 02:25:21;;;;;;;0.00;0.00;;;16.20;99.90;;;;;;5049224;28;20052;-82
2022/09/10 02:27:47;;;;;;;0.00;0.00;;;16.10;99.90;;;;;;5049274;28;20069;-80
2022/09/10 02:30:15;;;;;;;0.00;0.00;;;16.10;99.90;;;;;;5049849;28;20460;-81
2022/09/10 02:32:43;;;;;;;0.00;0.00;;;16.10;99.90;;;;;;5050641;28;20060;-82
2022/09/10 02:35:10;;;;;;;0.10;0.10;;;16.10;99.90;;;;;;5041715;28;20040;-79
2022/09/10 02:37:37;;;;;;;0.00;0.00;;;16.10;99.90;;;;;;5051724;28;20037;-82
2022/09/10 02:40:05;;;;;;;0.00;0.00;;;16.10;99.90;;;;;;5048993;28;20081;-82
2022/09/10 02:42:32;;;;;;;0.00;0.00;;;16.10;99.90;;;;;;5045466;28;20041;-82
2022/09/10 02:44:59;;;;;;;0.00;0.00;;;16.10;99.90;;;;;;5043674;28;20049;-83
2022/09/10 02:47:27;;;;;;;0.00;0.00;;;16.10;99.90;;;;;;5049946;28;20415;-82
2022/09/10 02:49:55;;;;;;;0.00;0.00;;;16.10;99.90;;;;;;5048750;28;20051;-81
2022/09/10 02:52:22;;;;;;;0.00;0.00;;;16.10;99.90;;;;;;5049742;28;20394;-81
2022/09/10 02:54:49;;;;;;;0.00;0.00;;;16.10;99.90;;;;;;5055754;28;20049;-80
2022/09/10 02:57:16;;;;;;;0.00;0.00;;;16.10;99.90;;;;;;5048654;28;20520;-82
2022/09/10 02:59:42;;;;;;;0.00;0.00;;;16.10;99.90;;;;;;5049375;28;20082;-82
2022/09/10 03:02:09;;;;;;;0.00;0.00;;;16.10;99.90;;;;;;5057894;28;20051;-82
2022/09/10 03:04:36;;;;;;;0.00;0.00;;;16.20;99.90;;;;;;5043647;28;20037;-81
2022/09/10 03:07:04;;;;;;;0.00;0.00;;;16.10;99.90;;;;;;5048896;28;20523;-80
2022/09/10 03:09:31;;;;;;;0.00;0.00;;;16.10;99.90;;;;;;5048101;28;20055;-80
2022/09/10 03:11:58;;;;;;;0.00;0.00;;;16.10;99.90;;;;;;5049498;28;20047;-80
2022/09/10 03:14:27;;;;;;;0.00;0.00;;;16.10;99.90;;;;;;5048275;28;20156;-80
2022/09/10 03:16:55;;;;;;;0.00;0.00;;;16.00;99.90;;;;;;5047975;28;20402;-80
2022/09/10 03:19:22;;;;;;;0.00;0.00;;;16.00;99.90;;;;;;5047200;28;20048;-81
2022/09/10 03:21:49;;;;;;;0.00;0.00;;;16.00;99.90;;;;;;5047532;28;20520;-80
2022/09/10 03:24:17;;;;;;;0.00;0.00;;;16.00;99.90;;;;;;5050022;28;20049;-80
2022/09/10 03:26:45;;;;;;;0.00;0.00;;;16.00;99.90;;;;;;5048601;28;20658;-81
2022/09/10 03:29:12;;;;;;;0.00;0.00;;;16.00;99.90;;;;;;5049217;28;20033;-80
2022/09/10 03:31:38;;;;;;;0.00;0.00;;;15.80;99.90;;;;;;5053060;28;20385;-81
2022/09/10 03:34:06;;;;;;;0.00;0.00;;;15.80;99.90;;;;;;5045902;28;20059;-81
2022/09/10 03:36:33;;;;;;;0.00;0.00;;;15.80;99.90;;;;;;5047226;28;20068;-81
2022/09/10 03:39:00;;;;;;;0.00;0.00;;;15.90;99.90;;;;;;5048582;28;20055;-79
2022/09/10 03:41:29;;;;;;;0.00;0.00;;;15.80;99.90;;;;;;5047645;28;20036;-81
2022/09/10 03:43:56;;;;;;;0.00;0.00;;;15.70;99.90;;;;;;5048550;28;20075;-80
2022/09/10 03:46:23;;;;;;;0.00;0.00;;;15.60;99.90;;;;;;5049135;28;20060;-81
2022/09/10 03:48:50;;;;;;;0.00;0.00;;;15.60;99.90;;;;;;5043794;28;20411;-81
2022/09/10 03:51:22;;;;;;;0.00;0.00;;;15.60;99.90;;;;;;5049062;28;20053;-82
2022/09/10 03:53:48;;;;;;;0.00;0.00;;;15.60;99.90;;;;;;5047469;28;20045;-82
2022/09/10 03:56:18;;;;;;;0.00;0.00;;;15.60;99.90;;;;;;5049869;28;20141;-80
2022/09/10 03:58:48;;;;;;;0.00;0.00;;;15.60;99.90;;;;;;5046465;28;20053;-80
2022/09/10 04:01:15;;;;;;;0.00;0.00;;;15.60;99.90;;;;;;5047628;28;20041;-81
2022/09/10 04:03:42;;;;;;;0.00;0.00;;;15.70;99.90;;;;;;5050849;28;20520;-82
2022/09/10 04:06:09;;;;;;;0.00;0.00;;;15.70;99.90;;;;;;5043047;28;20420;-79
2022/09/10 04:08:36;;;;;;;0.00;0.00;;;15.70;99.90;;;;;;5048434;28;20041;-83
2022/09/10 04:11:03;;;;;;;0.10;0.10;;;15.80;99.90;;;;;;5047315;28;20037;-82
2022/09/10 04:13:33;;;;;;;0.00;0.00;;;15.80;99.90;;;;;;5047266;28;20045;-80
2022/09/10 04:16:01;;;;;;;0.00;0.00;;;15.80;99.90;;;;;;5043262;28;20059;-80
2022/09/10 04:18:30;;;;;;;0.00;0.00;;;15.80;99.90;;;;;;5051245;28;20041;-80
2022/09/10 04:20:57;;;;;;;0.00;0.00;;;15.70;99.90;;;;;;5048576;28;20489;-81
2022/09/10 04:23:24;;;;;;;0.00;0.00;;;15.70;99.90;;;;;;5050143;28;20067;-82
2022/09/10 04:25:51;;;;;;;0.00;0.00;;;15.80;99.90;;;;;;5047440;28;20489;-82
2022/09/10 04:28:18;;;;;;;0.00;0.00;;;15.70;99.90;;;;;;5048246;28;20041;-82
2022/09/10 04:30:45;;;;;;;0.00;0.00;;;15.70;99.90;;;;;;5041823;28;20041;-81
2022/09/10 04:33:14;;;;;;;0.00;0.00;;;15.60;99.90;;;;;;5050634;28;20070;-80
2022/09/10 04:35:41;;;;;;;0.00;0.00;;;15.60;99.90;;;;;;5033890;28;20055;-81
2022/09/10 04:38:08;;;;;;;0.00;0.00;;;15.60;99.90;;;;;;5045634;28;20041;-80
2022/09/10 04:40:36;;;;;;;0.00;0.00;;;15.50;99.90;;;;;;5049731;28;20044;-81
2022/09/10 04:43:03;;;;;;;0.00;0.00;;;15.50;99.90;;;;;;5045198;28;20497;-81
2022/09/10 04:45:33;;;;;;;0.00;0.00;;;15.50;99.90;;;;;;5044419;28;20049;-80
2022/09/10 04:48:00;;;;;;;0.00;0.00;;;15.50;99.90;;;;;;5042488;28;20037;-81
2022/09/10 04:50:34;;;;;;;0.00;0.00;;;15.50;99.90;;;;;;5055390;28;20045;-81
2022/09/10 04:53:01;;;;;;;0.00;0.00;;;15.50;99.90;;;;;;5043292;28;20516;-80
2022/09/10 04:55:29;;;;;;;0.00;0.00;;;15.40;99.90;;;;;;5045715;28;20420;-80
2022/09/10 04:57:56;;;;;;;0.00;0.00;;;15.40;99.90;;;;;;5050020;28;20041;-81
2022/09/10 05:00:23;;;;;;;0.00;0.00;;;15.40;99.90;;;;;;5045255;28;20061;-80
2022/09/10 05:02:50;;;;;;;0.10;0.10;;;15.60;99.90;;;;;;5044030;28;20155;-80
2022/09/10 05:05:17;;;;;;;0.00;0.00;;;15.30;99.90;;;;;;5050692;28;20037;-80
2022/09/10 05:07:46;;;;;;;0.10;0.10;;;15.30;99.90;;;;;;5042496;28;20202;-82
2022/09/10 05:10:14;;;;;;;0.00;0.00;;;15.20;99.90;;;;;;5038694;28;20033;-80
2022/09/10 05:12:41;;;;;;;0.00;0.00;;;15.30;99.90;;;;;;5044670;28;20045;-80
2022/09/10 05:15:08;;;;;;;0.00;0.00;;;15.30;99.90;;;;;;5045702;28;20466;-82
2022/09/10 05:17:35;;;;;;;0.00;0.00;;;15.40;99.90;;;;;;5046094;28;20041;-82
2022/09/10 05:20:04;;;;;;;0.00;0.00;;;15.40;99.90;;;;;;5050712;28;20036;-83
2022/09/10 05:22:32;;;;;;;0.00;0.00;;;15.40;99.90;;;;;;5052053;28;20485;-80
2022/09/10 05:25:08;;;;;;;0.00;0.00;;;15.40;99.90;;;;;;5043618;28;20489;-81
2022/09/10 05:27:35;;;;;;;0.00;0.00;;;;;;;;;;5047378;28;20049;-82
2022/09/10 05:30:02;;;;;;;0.00;0.00;;;15.40;99.90;;;;;;5050931;28;20041;-82
2022/09/10 05:32:31;;;;;;;0.00;0.00;;;15.30;99.90;;;;;;5065094;28;20075;-81
2022/09/10 05:34:58;;;;;;;0.00;0.00;;;15.40;99.90;;;;;;5050105;28;20047;-81
2022/09/10 05:37:25;;;;;;;0.00;0.00;;;15.40;99.90;;;;;;5050287;28;20041;-81
2022/09/10 05:39:52;;;;;;;0.00;0.00;;;15.40;99.90;;;;;;5050783;28;20380;-81
2022/09/10 05:42:21;;;;;;;0.00;0.00;;;15.40;99.90;;;;;;5051058;28;20120;-80
2022/09/10 05:44:47;;;;;;;0.00;0.00;;;15.50;99.90;;;;;;5049052;28;20079;-82
2022/09/10 05:47:14;;;;;;;0.00;0.00;;;15.50;99.90;;;;;;5045271;28;20385;-80
2022/09/10 05:49:41;;;;;;;0.00;0.00;;;15.50;99.90;;;;;;5050309;28;20045;-80
2022/09/10 05:52:08;;;;;;;0.00;0.00;;;15.60;99.90;;;;;;5051442;28;20054;-80
2022/09/10 05:54:35;;;;;;;0.00;0.00;;;15.60;99.90;;;;;;5047817;28;20057;-79
2022/09/10 05:57:01;;;;;;;0.00;0.00;;;15.50;99.90;;;;;;5044618;28;20044;-81
2022/09/10 05:59:29;;;;;;;0.00;0.00;;;15.60;99.90;;;;;;5046521;28;20047;-80
2022/09/10 06:01:56;;;;;;;0.00;0.00;;;15.60;99.90;;;;;;5048050;28;20408;-80
2022/09/10 06:04:24;;;;;;;0.00;0.00;;;15.60;99.90;;;;;;5047446;28;20461;-80
2022/09/10 06:06:51;;;;;;;0.00;0.00;;;15.60;99.90;;;;;;5043032;28;20049;-79
2022/09/10 06:09:18;;;;;;;0.00;0.00;;;15.70;99.90;;;;;;5041183;28;20029;-80
2022/09/10 06:11:47;;;;;;;0.00;0.00;;;15.80;99.90;;;;;;5052659;28;20041;-81
2022/09/10 06:14:14;;;;;;;0.00;0.00;;;15.80;99.90;;;;;;5047500;28;20037;-81
2022/09/10 06:16:42;;;;;;;0.00;0.00;;;15.80;99.90;;;;;;5058910;28;20813;-80
2022/09/10 06:19:09;;;;;;;0.00;0.00;;;15.90;99.90;;;;;;5057940;28;20052;-81
2022/09/10 06:21:35;;;;;;;0.00;0.00;;;15.90;99.90;;;;;;5058726;28;20051;-79
2022/09/10 06:24:02;;;;;;;0.00;0.00;;;15.80;99.90;;;;;;5053326;28;20065;-81
2022/09/10 06:26:29;;;;;;;0.00;0.00;;;15.70;99.90;;;;;;5053893;28;20407;-79
2022/09/10 06:28:56;;;;;;;0.00;0.00;;;15.60;99.90;;;;;;5048771;28;20042;-80
2022/09/10 06:31:23;;;;;;;0.00;0.00;;;15.70;99.90;;;;;;5057378;28;20039;-81
2022/09/10 06:33:51;;;;;;;0.00;0.00;;;15.70;99.90;;;;;;5051788;28;20056;-80
2022/09/10 06:36:18;;;;;;;0.00;0.00;;;15.60;99.90;;;;;;5048536;28;20049;-81
2022/09/10 06:38:45;;;;;;;0.00;0.00;;;15.50;99.90;;;;;;5050102;28;20055;-81
2022/09/10 06:41:14;;;;;;;0.00;0.00;;;15.60;99.90;;;;;;5043728;28;20423;-79
2022/09/10 06:43:41;;;;;;;0.00;0.00;;;15.60;99.90;;;;;;5046527;28;20079;-80
2022/09/10 06:46:12;;;;;;;0.00;0.00;;;15.60;99.90;;;;;;5046952;28;20044;-80
2022/09/10 06:49:02;;;;;;;0.00;0.00;;;15.60;99.90;;;;;;5045465;28;20037;-80
2022/09/10 06:51:29;;;;;;;0.00;0.00;;;15.70;99.90;;;;;;5046789;28;20033;-79
2022/09/10 06:53:56;;;;;;;0.00;0.00;;;15.60;99.90;;;;;;5047028;28;20041;-79
2022/09/10 06:56:23;;;;;;;0.00;0.00;;;15.50;99.90;;;;;;5052902;28;20057;-81
2022/09/10 06:58:50;;;;;;;0.00;0.00;;;15.50;99.90;;;;;;5052376;28;20209;-80
2022/09/10 07:01:19;;;;;;;0.00;0.00;;;15.50;99.90;;;;;;5046108;28;20077;-81
2022/09/10 07:03:46;;;;;;;0.00;0.00;;;15.50;99.90;;;;;;5050717;28;20175;-82
2022/09/10 07:06:16;;;;;;;0.00;0.00;;;15.50;99.90;;;;;;5058671;28;20403;-81
2022/09/10 07:08:43;;;;;;;0.00;0.00;;;15.60;99.90;;;;;;5059595;28;20033;-80
2022/09/10 07:11:11;;;;;;;0.00;0.00;;;15.60;99.90;;;;;;5054923;28;20048;-81
2022/09/10 07:13:39;;;;;;;0.00;0.00;;;15.70;99.90;;;;;;5046631;28;20052;-80
2022/09/10 07:16:06;;;;;;;0.00;0.00;;;15.70;99.90;;;;;;5048112;28;20417;-78
2022/09/10 07:18:33;;;;;;;0.00;0.00;;;15.80;99.90;;;;;;5072385;28;20406;-82
2022/09/10 07:21:07;;;;;;;0.00;0.00;;;15.90;99.90;;;;;;5048801;28;20045;-82
2022/09/10 07:23:37;;;;;;;0.00;0.00;;;16.00;99.90;;;;;;5042922;28;20033;-81
2022/09/10 07:26:06;;;;;;;0.00;0.00;;;16.10;99.90;;;;;;5046909;28;20524;-79
2022/09/10 07:28:35;;;;;;;0.00;0.00;;;16.10;99.90;;;;;;5047093;28;20095;-81
2022/09/10 07:31:12;;;;;;;0.00;0.00;;;16.20;99.90;;;;;;5044995;28;20049;-81
2022/09/10 07:33:38;;;;;;;0.00;0.00;;;16.30;99.90;;;;;;5046462;28;20041;-82
2022/09/10 07:36:05;;;;;;;0.00;0.00;;;16.40;99.90;;;;;;5046852;28;20512;-82
2022/09/10 07:38:32;;;;;;;0.00;0.00;;;16.50;99.90;;;;;;5048824;28;20525;-81
2022/09/10 07:41:01;;;;;;;0.00;0.00;;;16.60;99.90;;;;;;5043477;28;20041;-80
2022/09/10 07:43:28;;;;;;;0.00;0.00;;;16.60;99.90;;;;;;5040542;28;20507;-80
2022/09/10 07:45:55;;;;;;;0.00;0.00;;;16.70;99.90;;;;;;5046949;28;20520;-82
2022/09/10 07:48:26;;;;;;;0.00;0.00;;;16.70;99.90;;;;;;5053720;28;20041;-81
2022/09/10 07:51:00;;;;;;;0.00;0.00;;;16.90;99.90;;;;;;5049604;28;20044;-81
2022/09/10 07:56:01;;;;;;;0.00;0.00;;;17.20;99.90;;;;;;5068201;28;20173;-79
2022/09/10 07:58:29;;;;;;;0.00;0.00;;;17.30;99.90;;;;;;5063093;28;20419;-78
2022/09/10 08:00:57;;;;;;;0.00;0.00;;;17.20;99.90;;;;;;5058159;28;20047;-78
2022/09/10 08:03:24;;;;;;;0.00;0.00;;;17.40;99.90;;;;;;5059391;28;20051;-79
2022/09/10 08:05:52;;;;;;;0.00;0.00;;;17.60;99.90;;;;;;5065990;28;20048;-80
2022/09/10 08:08:18;;;;;;;0.00;0.00;;;17.70;99.90;;;;;;5068824;28;20757;-79
2022/09/10 08:10:45;;;;;;;0.00;0.00;;;17.80;99.90;;;;;;5066809;28;20063;-79
2022/09/10 08:13:13;;;;;;;0.00;0.00;;;17.90;99.90;;;;;;5072008;28;20050;-78
2022/09/10 08:15:42;;;;;;;0.00;0.00;;;18.10;99.90;;;;;;5086797;28;20055;-79
2022/09/10 08:18:09;;;;;;;0.10;0.10;;;18.20;99.90;;;;;;5071930;28;20025;-79
2022/09/10 08:20:38;;;;;;;0.00;0.00;;;18.30;99.90;;;;;;5078915;28;20040;-80
2022/09/10 08:23:05;;;;;;;0.00;0.00;;;18.20;99.90;;;;;;5076609;28;20048;-80
2022/09/10 08:25:32;;;;;;;0.00;0.00;;;18.40;99.90;;;;;;5086391;28;20044;-79
2022/09/10 08:27:59;;;;;;;0.00;0.00;;;18.60;99.90;;;;;;5073370;28;20046;-78
2022/09/10 08:30:29;;;;;;;0.00;0.00;;;18.80;99.90;;;;;;5070235;28;20187;-80
2022/09/10 08:32:56;;;;;;;0.00;0.00;;;18.80;99.90;;;;;;5057615;28;20115;-79
2022/09/10 08:35:22;;;;;;;0.00;0.00;;;18.90;99.90;;;;;;5063827;28;20153;-79
2022/09/10 08:37:50;;;;;;;0.00;0.00;;;19.10;99.90;;;;;;5072305;28;20048;-79
2022/09/10 08:40:17;;;;;;;0.00;0.00;;;19.20;99.90;;;;;;5068400;28;20706;-79
2022/09/10 08:42:48;;;;;;;0.00;0.00;;;19.20;99.90;;;;;;5077909;28;20044;-78
2022/09/10 08:45:19;;;;;;;0.00;0.00;;;19.30;99.90;;;;;;5068810;28;20036;-80
2022/09/10 08:47:54;;;;;;;0.00;0.00;;;19.30;99.90;;;;;;5066594;28;20049;-79
2022/09/10 08:50:27;;;;;;;0.00;0.00;;;19.20;99.90;;;;;;5063215;28;20045;-79
2022/09/10 08:52:59;;;;;;;0.00;0.00;;;19.20;99.90;;;;;;5064002;28;20051;-79
2022/09/10 08:55:30;;;;;;;0.00;0.00;;;19.10;99.90;;;;;;5062466;28;20041;-80
2022/09/10 08:58:02;;;;;;;0.00;0.00;;;18.90;99.90;;;;;;5065571;28;20407;-80
2022/09/10 09:00:32;;;;;;;0.00;0.00;;;18.90;99.90;;;;;;5077925;28;20056;-79
2022/09/10 09:03:05;;;;;;;0.00;0.00;;;18.90;99.90;;;;;;5064697;28;20036;-79
2022/09/10 09:05:43;;;;;;;0.00;0.00;;;18.90;99.90;;;;;;5067299;28;20052;-80
2022/09/10 09:08:12;;;;;;;0.00;0.00;;;18.90;99.90;;;;;;5068198;28;20072;-79
2022/09/10 09:10:46;;;;;;;0.00;0.00;;;19.00;99.90;;;;;;5061608;28;20278;-78
2022/09/10 09:13:47;;;;;;;0.00;0.00;;;18.90;99.90;;;;;;5063946;28;20041;-78
2022/09/10 09:16:43;;;;;;;0.00;0.00;;;19.00;99.90;;;;;;5066226;28;20043;-80
2022/09/10 09:19:21;;;;;;;0.00;0.00;;;19.00;99.90;;;;;;5059847;28;20037;-80
2022/09/10 09:21:51;;;;;;;0.00;0.00;;;18.90;99.90;;;;;;5060374;28;20037;-79
2022/09/10 09:24:21;;;;;;;;;;;18.90;99.90;;;;;;5071928;28;20048;-79
2022/09/10 09:26:48;;;;;;;0.00;0.00;;;19.10;99.90;;;;;;5086140;28;20296;-80
2022/09/10 09:29:20;;;;;;;0.00;0.00;;;19.10;99.90;;;;;;5072981;28;20039;-80
2022/09/10 09:31:50;;;;;;;0.00;0.00;;;19.10;99.90;;;;;;5083805;28;20044;-79
2022/09/10 09:34:26;;;;;;;0.00;0.00;;;19.30;99.90;;;;;;5070235;28;20508;-79
2022/09/10 09:36:56;;;;;;;0.00;0.00;;;19.30;99.90;;;;;;5072988;28;20048;-78
2022/09/10 09:39:29;;;;;;;0.00;0.00;;;19.40;99.90;;;;;;5087726;28;20045;-80
2022/09/10 09:42:03;;;;;;;0.00;0.00;;;19.50;99.90;;;;;;5060067;28;20036;-79
2022/09/10 09:44:35;;;;;;;0.00;0.00;;;19.60;99.90;;;;;;5062913;28;20051;-80
2022/09/10 09:47:02;;;;;;;0.00;0.00;;;19.80;99.90;;;;;;5069245;28;20040;-80
2022/09/10 09:49:31;;;;;;;0.00;0.00;;;19.80;99.90;;;;;;5068552;28;20527;-80
2022/09/10 09:52:02;;;;;;;0.00;0.00;;;20.00;99.90;;;;;;5070036;28;20057;-79
2022/09/10 09:54:30;;;;;;;0.00;0.00;;;20.10;99.90;;;;;;5059242;28;20036;-79
2022/09/10 09:57:19;;;;;;;0.00;0.00;;;20.10;99.90;;;;;;5066702;28;20043;-80
2022/09/10 09:59:48;;;;;;;0.00;0.00;;;20.10;99.90;;;;;;5066036;28;20033;-79
2022/09/10 10:02:17;;;;;;;0.00;0.00;;;20.10;99.90;;;;;;5063026;28;20505;-80
2022/09/10 10:05:02;;;;;;;0.00;0.00;;;20.20;99.90;;;;;;5079995;28;20049;-80
2022/09/10 10:07:31;;;;;;;0.00;0.00;;;20.40;99.90;;;;;;5064251;28;20036;-80
2022/09/10 10:09:59;;;;;;;0.00;0.00;;;20.30;99.90;;;;;;5075511;28;20059;-79
2022/09/10 10:12:30;;;;;;;0.00;0.00;;;20.50;99.90;;;;;;5080660;28;20052;-80
2022/09/10 10:14:58;;;;;;;0.00;0.00;;;20.50;99.90;;;;;;5065922;28;20079;-82
2022/09/10 10:17:34;;;;;;;0.00;0.00;;;20.60;99.90;;;;;;5058986;28;20071;-80
2022/09/10 10:20:09;;;;;;;0.00;0.00;;;20.60;99.90;;;;;;5072077;28;20060;-79
2022/09/10 10:22:37;;;;;;;0.00;0.00;;;20.60;99.90;;;;;;5080537;28;20048;-80
2022/09/10 10:25:22;;;;;;;0.00;0.00;;;20.60;99.90;;;;;;5078322;28;20286;-79
2022/09/10 10:27:50;;;;;;;0.00;0.00;;;20.80;99.90;;;;;;5071877;28;20074;-80
2022/09/10 10:30:22;;;;;;;0.00;0.00;;;20.90;99.90;;;;;;5073147;28;20033;-80
2022/09/10 10:32:52;;;;;;;0.00;0.00;;;21.10;99.90;;;;;;5072664;28;20585;-80
2022/09/10 10:35:37;;;;;;;0.00;0.00;;;21.20;99.90;;;;;;5084210;28;20389;-79
2022/09/10 10:38:27;;;;;;;0.00;0.00;;;21.30;99.90;;;;;;5077313;28;20431;-79
2022/09/10 10:41:43;;;;;;;0.00;0.00;;;21.50;99.90;;;;;;5068158;28;20045;-80
2022/09/10 10:44:31;;;;;;;0.00;0.00;;;21.40;99.90;;;;;;5058369;28;20045;-79
2022/09/10 10:47:12;;;;;;;0.00;0.00;;;21.30;99.90;;;;;;5079007;28;20056;-79
2022/09/10 10:49:52;;;;;;;0.00;0.00;;;21.30;99.90;;;;;;5063846;28;20044;-79
2022/09/10 10:52:29;;;;;;;0.00;0.00;;;20.90;99.90;;;;;;5061862;28;20285;-79
2022/09/10 10:55:11;;;;;;;0.00;0.00;;;20.80;99.90;;;;;;5071500;28;20044;-79
2022/09/10 10:58:02;;;;;;;0.00;0.00;;;21.00;99.90;;;;;;5062299;28;20044;-81
2022/09/10 11:00:36;;;;;;;0.00;0.00;;;21.10;99.90;;;;;;5064656;28;20055;-78
2022/09/10 11:03:10;;;;;;;0.00;0.00;;;21.00;99.90;;;;;;5069431;28;20071;-78
2022/09/10 11:05:40;;;;;;;0.00;0.00;;;20.70;99.90;;;;;;5072587;28;20098;-79
2022/09/10 11:08:11;;;;;;;0.00;0.00;;;20.60;99.90;;;;;;5061573;28;21005;-79
2022/09/10 11:10:43;;;;;;;0.00;0.00;;;20.50;99.90;;;;;;5069568;28;20048;-78
2022/09/10 11:13:17;;;;;;;0.00;0.00;;;20.30;99.90;;;;;;5064299;28;20060;-79
2022/09/10 11:15:51;;;;;;;0.00;0.00;;;20.60;99.90;;;;;;5065276;28;20124;-78
2022/09/10 11:18:21;;;;;;;0.00;0.00;;;20.90;99.90;;;;;;5077270;28;20043;-80
2022/09/10 11:20:57;;;;;;;0.00;0.00;;;20.90;99.90;;;;;;5058814;28;20047;-79
2022/09/10 11:23:29;;;;;;;0.00;0.00;;;20.90;99.90;;;;;;5067549;28;20052;-80
2022/09/10 11:26:01;;;;;;;0.00;0.00;;;20.90;99.90;;;;;;5067867;28;20048;-81
2022/09/10 11:28:34;;;;;;;0.00;0.00;;;21.20;99.90;;;;;;5063068;28;20044;-79
2022/09/10 11:31:07;;;;;;;0.00;0.00;;;21.30;99.90;;;;;;5071833;28;20033;-79
2022/09/10 11:33:40;;;;;;;0.00;0.00;;;21.60;99.90;;;;;;5068436;28;20041;-79
2022/09/10 11:36:10;;;;;;;0.00;0.00;;;21.90;99.90;;;;;;5064378;28;20482;-80
2022/09/10 11:38:47;;;;;;;0.00;0.00;;;22.10;99.90;;;;;;5073267;28;20048;-80
2022/09/10 11:41:17;;;;;;;0.00;0.00;;;22.10;99.90;;;;;;5068313;28;20055;-80
2022/09/10 11:43:50;;;;;;;0.00;0.00;;;22.00;99.90;;;;;;5066405;28;20047;-80
2022/09/10 11:46:22;;;;;;;0.00;0.00;;;21.60;99.70;;;;;;5077586;28;20050;-79
2022/09/10 11:48:54;;;;;;;0.00;0.00;;;21.50;99.90;;;;;;5071248;28;20037;-79
2022/09/10 11:51:25;;;;;;;0.00;0.00;;;21.70;99.90;;;;;;5062810;28;20043;-80
2022/09/10 11:53:54;;;;;;;0.00;0.00;;;21.60;99.90;;;;;;5070532;28;20485;-78
2022/09/10 11:56:36;;;;;;;0.00;0.00;;;21.50;99.90;;;;;;5069215;28;20028;-81
2022/09/10 11:59:16;;;;;;;0.00;0.00;;;21.70;99.90;;;;;;5066179;28;20497;-80
2022/09/10 12:02:01;;;;;;;0.00;0.00;;;21.80;99.90;;;;;;5056709;28;20057;-80
2022/09/10 12:04:44;;;;;;;0.00;0.00;;;21.80;99.90;;;;;;5076574;28;20044;-80
2022/09/10 12:07:22;;;;;;;0.00;0.00;;;21.80;99.90;;;;;;5065519;28;20045;-81
2022/09/10 12:10:02;;;;;;;0.00;0.00;;;21.90;99.90;;;;;;5063608;28;20045;-78
2022/09/10 12:12:35;;;;;;;0.00;0.00;;;21.80;99.40;;;;;;5063917;28;20094;-78
2022/09/10 12:15:07;;;;;;;0.00;0.00;;;22.10;99.90;;;;;;5066613;28;20059;-79
2022/09/10 12:17:40;;;;;;;0.00;0.00;;;22.10;99.50;;;;;;5066922;28;20032;-79
2022/09/10 12:20:15;;;;;;;0.00;0.00;;;22.30;98.60;;;;;;5067125;28;20397;-79
2022/09/10 12:22:42;;;;;;;0.00;0.00;;;22.50;99.60;;;;;;5068863;28;20493;-79
2022/09/10 12:25:24;;;;;;;0.00;0.00;;;22.60;99.00;;;;;;5065635;28;20041;-79
2022/09/10 12:27:59;;;;;;;0.00;0.00;;;22.40;98.30;;;;;;5084428;28;20082;-78
2022/09/10 12:30:59;;;;;;;0.00;0.00;;;22.50;98.20;;;;;;5064217;28;20131;-79
2022/09/10 12:34:05;;;;;;;0.00;0.00;;;22.60;97.90;;;;;;5062037;28;20055;-79
2022/09/10 12:37:13;;;;;;;0.00;0.00;;;22.70;98.20;;;;;;5064334;28;20049;-79
2022/09/10 12:39:40;;;;;;;0.00;0.00;;;22.70;98.50;;;;;;5062986;28;20106;-80
2022/09/10 12:42:30;;;;;;;0.00;0.00;;;22.80;99.00;;;;;;5064418;28;20044;-79
2022/09/10 12:44:57;;;;;;;0.00;0.00;;;22.70;98.30;;;;;;5059237;28;20559;-80
2022/09/10 12:47:49;;;;;;;0.00;0.00;;;22.80;98.20;;;;;;5072364;28;20072;-80
2022/09/10 12:50:51;;;;;;;0.00;0.00;;;22.50;97.80;;;;;;5067779;28;20493;-78
2022/09/10 12:53:38;;;;;;;0.00;0.00;;;22.50;98.60;;;;;;5066386;28;20049;-78
2022/09/10 12:56:23;;;;;;;0.00;0.00;;;22.50;97.70;;;;;;5063498;28;20044;-80
2022/09/10 12:59:09;;;;;;;0.00;0.00;;;22.40;98.00;;;;;;5063589;28;20040;-79
2022/09/10 13:01:40;;;;;;;0.00;0.00;;;22.40;99.10;;;;;;5054513;28;20032;-79
2022/09/10 13:04:20;;;;;;;0.00;0.00;;;22.40;98.80;;;;;;5062149;28;20463;-78
2022/09/10 13:06:49;;;;;;;0.00;0.00;;;22.30;99.10;;;;;;5077952;28;20051;-79
2022/09/10 13:09:19;;;;;;;0.00;0.00;;;21.90;99.90;;;;;;5077399;28;20052;-79
2022/09/10 13:11:49;;;;;;;0.00;0.00;;;21.70;99.90;;;;;;5068018;28;20044;-78